createdAt,value
2023-02-11T00:01:36.310Z,73.83
2023-02-11T00:04:06.845Z,73.72
2023-02-11T00:06:36.277Z,73.13
2023-02-11T00:09:04.854Z,73.24
2023-02-11T00:11:33.639Z,73.79
2023-02-11T00:14:05.217Z,74.29
2023-02-11T00:16:33.779Z,74.13
2023-02-11T00:19:03.494Z,73.03
2023-02-11T00:21:31.659Z,73.49
2023-02-11T00:24:02.403Z,73.72
2023-02-11T00:26:33.639Z,73.66
2023-02-11T00:29:02.682Z,73.67
2023-02-11T00:31:34.087Z,72.81
2023-02-11T00:34:02.763Z,72.03
2023-02-11T00:36:31.265Z,71.70
2023-02-11T00:39:00.172Z,72.41
2023-02-11T00:41:29.960Z,72.16
2023-02-11T00:44:02.465Z,71.73
2023-02-11T00:46:30.950Z,71.29
2023-02-11T00:48:59.685Z,71.50
2023-02-11T00:51:29.224Z,72.14
2023-02-11T00:53:57.673Z,73.17
2023-02-11T00:56:26.255Z,72.50
2023-02-11T00:58:54.445Z,72.34
2023-02-11T01:01:22.767Z,71.88
2023-02-11T01:03:51.188Z,71.75
2023-02-11T01:06:20.002Z,72.57
2023-02-11T01:08:48.352Z,73.35
2023-02-11T01:11:20.400Z,72.58
2023-02-11T01:13:49.949Z,70.99
2023-02-11T01:16:20.175Z,70.75
2023-02-11T01:18:48.948Z,70.37
2023-02-11T01:21:19.562Z,69.92
2023-02-11T01:23:47.845Z,70.22
2023-02-11T01:26:16.643Z,71.06
2023-02-11T01:28:44.913Z,71.12
2023-02-11T01:31:13.299Z,71.30
2023-02-11T01:33:41.874Z,70.96
2023-02-11T01:36:11.969Z,71.49
2023-02-11T01:38:41.187Z,70.87
2023-02-11T01:41:12.902Z,71.80
2023-02-11T01:43:45.146Z,71.01
2023-02-11T01:46:31.465Z,70.43
2023-02-11T01:49:02.785Z,70.31
2023-02-11T01:51:36.762Z,70.12
2023-02-11T01:54:26.564Z,70.42
2023-02-11T01:57:16.225Z,69.90
2023-02-11T01:59:54.667Z,70.61
2023-02-11T02:02:35.408Z,70.93
2023-02-11T02:05:20.375Z,70.64
2023-02-11T02:08:11.998Z,70.01
2023-02-11T02:10:44.698Z,69.47
2023-02-11T02:13:14.601Z,69.77
2023-02-11T02:15:50.796Z,69.93
2023-02-11T02:18:34.485Z,69.81
2023-02-11T02:21:14.027Z,70.22
2023-02-11T02:23:42.197Z,71.94
2023-02-11T02:26:28.503Z,71.75
2023-02-11T02:29:22.885Z,71.40
2023-02-11T02:31:54.211Z,70.89
2023-02-11T02:34:25.270Z,71.26
2023-02-11T02:37:06.962Z,71.96
2023-02-11T02:39:37.640Z,71.43
2023-02-11T02:42:06.383Z,72.13
2023-02-11T02:44:34.965Z,73.23
2023-02-11T02:47:03.357Z,73.11
2023-02-11T02:49:31.621Z,72.29
2023-02-11T02:52:34.001Z,71.76
2023-02-11T02:55:21.123Z,71.12
2023-02-11T02:58:09.258Z,70.26
2023-02-11T03:01:11.334Z,70.66
2023-02-11T03:04:02.738Z,70.92
2023-02-11T03:06:57.648Z,70.61
2023-02-11T03:09:36.604Z,70.73
2023-02-11T03:12:06.492Z,70.94
2023-02-11T03:14:36.692Z,71.10
2023-02-11T03:17:08.056Z,71.65
2023-02-11T03:19:43.179Z,71.05
2023-02-11T03:22:30.825Z,70.96
2023-02-11T03:25:00.728Z,70.79
2023-02-11T03:27:50.344Z,71.14
2023-02-11T03:30:26.163Z,70.70
2023-02-11T03:33:01.327Z,71.35
2023-02-11T03:35:36.812Z,71.06
2023-02-11T03:38:13.213Z,71.37
2023-02-11T03:40:45.665Z,70.76
2023-02-11T03:43:22.883Z,69.85
2023-02-11T03:45:54.044Z,69.99
2023-02-11T03:48:31.415Z,70.86
2023-02-11T03:51:03.852Z,70.99
2023-02-11T03:53:32.257Z,71.97
2023-02-11T03:56:05.153Z,71.75
2023-02-11T03:58:33.315Z,71.50
2023-02-11T04:01:02.927Z,71.55
2023-02-11T04:03:33.374Z,71.83
2023-02-11T04:06:02.035Z,71.20
2023-02-11T04:08:31.851Z,71.84
2023-02-11T04:11:00.226Z,71.01
2023-02-11T04:13:28.397Z,70.75
2023-02-11T04:15:56.579Z,71.58
2023-02-11T04:18:24.845Z,71.58
2023-02-11T04:20:53.119Z,71.97
2023-02-11T04:23:21.400Z,72.44
2023-02-11T04:25:50.637Z,72.35
2023-02-11T04:28:18.930Z,72.96
2023-02-11T04:30:47.291Z,73.33
2023-02-11T04:33:15.529Z,74.04
2023-02-11T04:35:43.806Z,73.61
2023-02-11T04:38:12.186Z,73.34
2023-02-11T04:40:41.358Z,74.51
2023-02-11T04:43:09.551Z,75.08
2023-02-11T04:45:37.941Z,73.62
2023-02-11T04:48:06.418Z,74.79
2023-02-11T04:50:34.599Z,75.22
2023-02-11T04:53:02.764Z,74.98
2023-02-11T04:55:31.037Z,74.65
2023-02-11T04:57:59.213Z,74.53
2023-02-11T05:00:27.386Z,74.79
2023-02-11T05:02:55.554Z,74.56
2023-02-11T05:05:24.042Z,74.10
2023-02-11T05:07:52.415Z,74.21
2023-02-11T05:10:20.696Z,74.80
2023-02-11T05:12:49.836Z,73.50
2023-02-11T05:15:18.060Z,71.73
2023-02-11T05:17:46.849Z,71.95
2023-02-11T05:20:15.330Z,70.84
2023-02-11T05:22:43.706Z,70.07
2023-02-11T05:25:12.189Z,70.04
2023-02-11T05:27:40.565Z,70.40
2023-02-11T05:30:09.762Z,70.68
2023-02-11T05:32:38.049Z,69.75
2023-02-11T05:35:06.725Z,70.01
2023-02-11T05:37:35.239Z,71.05
2023-02-11T05:40:08.204Z,71.26
2023-02-11T05:42:36.364Z,71.20
2023-02-11T05:45:05.665Z,72.14
2023-02-11T05:47:34.041Z,72.53
2023-02-11T05:50:02.351Z,72.08
2023-02-11T05:52:30.598Z,71.78
2023-02-11T05:54:58.879Z,70.93
2023-02-11T05:57:27.248Z,71.06
2023-02-11T05:59:55.424Z,71.66
2023-02-11T06:02:23.752Z,71.26
2023-02-11T06:04:52.078Z,71.59
2023-02-11T06:07:20.368Z,71.28
2023-02-11T06:09:48.634Z,71.10
2023-02-11T06:12:17.110Z,70.63
2023-02-11T06:14:45.282Z,70.81
2023-02-11T06:17:15.650Z,71.31
2023-02-11T06:19:44.600Z,71.23
2023-02-11T06:22:12.882Z,70.73
2023-02-11T06:24:59.831Z,69.98
2023-02-11T06:27:30.317Z,69.95
2023-02-11T06:29:58.695Z,68.88
2023-02-11T06:32:43.925Z,68.39
2023-02-11T06:35:14.838Z,67.76
2023-02-11T06:37:43.340Z,67.06
2023-02-11T06:40:12.506Z,66.14
2023-02-11T06:42:40.973Z,65.54
2023-02-11T06:45:11.174Z,64.84
2023-02-11T06:47:40.803Z,64.62
2023-02-11T06:50:12.450Z,64.18
2023-02-11T06:52:41.237Z,62.30
2023-02-11T06:55:09.517Z,58.68
2023-02-11T06:57:37.789Z,54.84
2023-02-11T07:00:06.930Z,52.08
2023-02-11T07:02:36.041Z,50.68
2023-02-11T07:05:07.120Z,47.36
2023-02-11T07:07:35.787Z,46.87
2023-02-11T07:10:06.031Z,44.80
2023-02-11T07:12:34.615Z,43.61
2023-02-11T07:15:03.612Z,44.73
2023-02-11T07:17:32.103Z,41.07
2023-02-11T07:20:00.382Z,41.06
2023-02-11T07:22:28.643Z,40.52
2023-02-11T07:24:56.926Z,39.49
2023-02-11T07:27:25.356Z,38.07
2023-02-11T07:29:53.671Z,36.31
2023-02-11T07:32:22.049Z,36.71
2023-02-11T07:34:50.259Z,34.86
2023-02-11T07:37:19.627Z,33.64
2023-02-11T07:39:47.907Z,33.67
2023-02-11T07:42:16.382Z,33.51
2023-02-11T07:44:50.031Z,32.91
2023-02-11T07:47:18.871Z,33.03
2023-02-11T07:49:47.974Z,31.60
2023-02-11T07:52:16.141Z,31.88
2023-02-11T07:54:46.979Z,31.08
2023-02-11T07:57:15.148Z,31.07
2023-02-11T07:59:43.335Z,30.22
2023-02-11T08:02:11.841Z,29.63
2023-02-11T08:04:40.387Z,28.59
2023-02-11T08:07:08.557Z,27.60
2023-02-11T08:09:36.798Z,27.54
2023-02-11T08:12:05.432Z,26.20
2023-02-11T08:14:33.596Z,25.91
2023-02-11T08:17:01.765Z,24.34
2023-02-11T08:19:29.982Z,23.50
2023-02-11T08:21:58.621Z,23.15
2023-02-11T08:24:26.869Z,22.72
2023-02-11T08:26:55.075Z,22.74
2023-02-11T08:29:23.243Z,22.29
2023-02-11T08:31:51.639Z,22.70
2023-02-11T08:34:19.913Z,22.16
2023-02-11T08:36:49.098Z,21.12
2023-02-11T08:39:20.757Z,21.13
2023-02-11T08:41:52.506Z,21.54
2023-02-11T08:44:22.122Z,21.12
2023-02-11T08:46:51.413Z,21.16
2023-02-11T08:49:19.959Z,22.58
2023-02-11T08:51:49.200Z,22.41
2023-02-11T08:54:17.987Z,21.96
2023-02-11T08:56:46.266Z,22.56
2023-02-11T08:59:15.757Z,23.33
2023-02-11T09:01:44.664Z,23.48
2023-02-11T09:04:13.255Z,24.24
2023-02-11T09:06:41.922Z,25.36
2023-02-11T09:09:15.092Z,26.52
2023-02-11T09:11:45.028Z,25.15
2023-02-11T09:14:19.565Z,25.16
2023-02-11T09:16:48.569Z,24.14
2023-02-11T09:19:18.010Z,24.17
2023-02-11T09:21:46.428Z,25.89
2023-02-11T09:24:15.531Z,25.61
2023-02-11T09:26:43.934Z,26.63
2023-02-11T09:29:12.801Z,26.96
2023-02-11T09:31:41.381Z,26.98
2023-02-11T09:34:11.597Z,26.01
2023-02-11T09:36:41.114Z,26.61
2023-02-11T09:39:14.765Z,26.98
2023-02-11T09:41:45.947Z,27.14
2023-02-11T09:44:29.666Z,26.73
2023-02-11T09:47:05.033Z,27.51
2023-02-11T09:49:44.565Z,28.67
2023-02-11T09:52:18.959Z,28.29
2023-02-11T09:54:59.204Z,28.91
2023-02-11T09:57:34.404Z,29.70
2023-02-11T10:00:17.825Z,29.62
2023-02-11T10:02:55.001Z,30.15
2023-02-11T10:05:43.877Z,30.08
2023-02-11T10:08:17.502Z,29.45
2023-02-11T10:10:57.814Z,29.25
2023-02-11T10:13:42.653Z,29.96
2023-02-11T10:16:25.200Z,28.53
2023-02-11T10:19:44.671Z,29.94
2023-02-11T10:22:21.654Z,29.66
2023-02-11T10:25:00.551Z,30.63
2023-02-11T10:27:33.523Z,30.75
2023-02-11T10:30:16.280Z,30.68
2023-02-11T10:32:51.580Z,31.26
2023-02-11T10:35:22.839Z,31.98
2023-02-11T10:37:51.143Z,31.93
2023-02-11T10:40:26.176Z,32.39
2023-02-11T10:42:59.378Z,32.87
2023-02-11T10:45:37.307Z,32.31
2023-02-11T10:48:26.638Z,32.31
2023-02-11T10:51:34.345Z,33.41
2023-02-11T10:54:05.583Z,34.33
2023-02-11T10:56:41.133Z,34.17
2023-02-11T10:59:40.481Z,35.18
2023-02-11T11:02:32.282Z,34.95
2023-02-11T11:05:16.261Z,34.75
2023-02-11T11:07:57.047Z,34.53
2023-02-11T11:10:35.900Z,35.06
2023-02-11T11:13:04.170Z,35.00
2023-02-11T11:15:32.857Z,35.40
2023-02-11T11:18:22.476Z,34.76
2023-02-11T11:21:01.428Z,34.73
2023-02-11T11:23:30.945Z,34.84
2023-02-11T11:26:04.981Z,34.81
2023-02-11T11:28:52.395Z,35.07
2023-02-11T11:31:46.811Z,35.20
2023-02-11T11:34:29.094Z,35.88
2023-02-11T11:36:59.724Z,35.85
2023-02-11T11:39:35.142Z,36.03
2023-02-11T11:42:06.486Z,35.87
2023-02-11T11:44:40.078Z,36.65
2023-02-11T11:47:11.359Z,37.02
2023-02-11T11:49:49.668Z,36.71
2023-02-11T11:52:33.626Z,36.99
2023-02-11T11:55:42.521Z,37.08
2023-02-11T11:58:19.318Z,37.62
2023-02-11T12:01:03.567Z,37.14
2023-02-11T12:04:03.055Z,38.19
2023-02-11T12:06:47.605Z,38.03
2023-02-11T12:09:37.316Z,38.20
2023-02-11T12:12:35.074Z,37.88
2023-02-11T12:15:55.583Z,38.60
2023-02-11T12:18:54.396Z,38.91
2023-02-11T12:21:33.808Z,39.07
2023-02-11T12:24:33.519Z,38.88
2023-02-11T12:27:11.226Z,38.79
2023-02-11T12:30:04.989Z,38.98
2023-02-11T12:32:53.651Z,39.01
2023-02-11T12:36:07.487Z,39.21
2023-02-11T12:39:14.485Z,39.19
2023-02-11T12:42:30.882Z,39.64
2023-02-11T12:45:09.704Z,39.65
2023-02-11T12:48:06.849Z,39.50
2023-02-11T12:51:16.501Z,39.16
2023-02-11T12:53:54.911Z,39.39
2023-02-11T12:56:42.531Z,39.73
2023-02-11T12:59:37.851Z,39.51
2023-02-11T13:02:18.041Z,39.51
2023-02-11T13:04:57.544Z,39.60
2023-02-11T13:07:33.761Z,39.86
2023-02-11T13:10:14.378Z,40.06
2023-02-11T13:13:05.792Z,40.03
2023-02-11T13:15:34.070Z,39.88
2023-02-11T13:18:50.577Z,39.80
2023-02-11T13:21:38.720Z,39.88
2023-02-11T13:24:23.992Z,39.66
2023-02-11T13:27:04.655Z,39.93
2023-02-11T13:30:12.981Z,40.38
2023-02-11T13:32:56.919Z,40.22
2023-02-11T13:35:32.123Z,40.41
2023-02-11T13:38:21.935Z,40.89
2023-02-11T13:41:24.927Z,40.52
2023-02-11T13:44:11.832Z,40.37
2023-02-11T13:46:54.322Z,40.78
2023-02-11T13:49:41.779Z,40.65
2023-02-11T13:52:22.154Z,40.44
2023-02-11T13:54:53.267Z,40.82
2023-02-11T13:57:21.444Z,40.89
2023-02-11T13:59:56.196Z,40.56
2023-02-11T14:02:47.989Z,40.56
2023-02-11T14:05:50.382Z,40.37
2023-02-11T14:08:43.125Z,40.53
2023-02-11T14:11:23.796Z,40.71
2023-02-11T14:13:51.884Z,40.64
2023-02-11T14:16:36.312Z,40.73
2023-02-11T14:19:06.524Z,40.85
2023-02-11T14:21:38.411Z,40.86
2023-02-11T14:24:07.241Z,41.05
2023-02-11T14:26:47.655Z,40.97
2023-02-11T14:29:31.195Z,41.34
2023-02-11T14:32:05.914Z,41.08
2023-02-11T14:34:43.302Z,41.19
2023-02-11T14:37:27.621Z,41.40
2023-02-11T14:40:18.030Z,41.21
2023-02-11T14:42:46.732Z,41.44
2023-02-11T14:45:27.505Z,42.05
2023-02-11T14:48:04.585Z,41.94
2023-02-11T14:50:42.136Z,41.85
2023-02-11T14:53:17.256Z,42.28
2023-02-11T14:55:54.483Z,42.66
2023-02-11T14:58:22.890Z,42.69
2023-02-11T15:01:00.916Z,44.23
2023-02-11T15:03:42.472Z,43.68
2023-02-11T15:06:23.859Z,43.77
2023-02-11T15:09:16.708Z,44.43
2023-02-11T15:11:48.062Z,44.37
2023-02-11T15:14:22.953Z,44.06
2023-02-11T15:16:53.929Z,44.33
2023-02-11T15:19:39.925Z,44.62
2023-02-11T15:22:30.105Z,45.02
2023-02-11T15:25:07.057Z,45.06
2023-02-11T15:27:43.883Z,45.25
2023-02-11T15:30:24.227Z,45.62
2023-02-11T15:33:00.175Z,46.51
2023-02-11T15:35:35.272Z,46.82
2023-02-11T15:38:04.427Z,46.84
2023-02-11T15:40:35.892Z,46.50
2023-02-11T15:43:06.563Z,47.19
2023-02-11T15:45:35.995Z,46.57
2023-02-11T15:48:16.868Z,46.67
2023-02-11T15:50:53.015Z,46.98
2023-02-11T15:53:38.408Z,47.23
2023-02-11T15:56:12.920Z,48.36
2023-02-11T15:58:43.880Z,48.39
2023-02-11T16:01:13.071Z,49.61
2023-02-11T16:03:43.388Z,49.01
2023-02-11T16:06:24.678Z,48.03
2023-02-11T16:09:05.787Z,49.40
2023-02-11T16:11:54.821Z,50.41
2023-02-11T16:14:37.127Z,54.47
2023-02-11T16:17:13.379Z,55.41
2023-02-11T16:19:47.079Z,54.57
2023-02-11T16:22:25.700Z,53.15
2023-02-11T16:24:58.167Z,53.91
2023-02-11T16:27:40.991Z,55.20
2023-02-11T16:30:33.557Z,55.80
2023-02-11T16:33:01.746Z,56.37
2023-02-11T16:35:30.788Z,55.25
2023-02-11T16:37:58.979Z,54.87
2023-02-11T16:40:27.247Z,55.00
2023-02-11T16:42:56.137Z,55.40
2023-02-11T16:45:24.417Z,55.01
2023-02-11T16:47:52.585Z,57.01
2023-02-11T16:50:25.489Z,58.64
2023-02-11T16:52:54.156Z,59.10
2023-02-11T16:55:22.406Z,58.17
2023-02-11T16:57:50.718Z,56.74
2023-02-11T17:00:19.702Z,58.19
2023-02-11T17:02:48.084Z,57.66
2023-02-11T17:05:26.065Z,58.01
2023-02-11T17:07:54.356Z,62.35
2023-02-11T17:10:24.029Z,62.94
2023-02-11T17:12:53.713Z,61.18
2023-02-11T17:15:21.945Z,60.70
2023-02-11T17:17:50.128Z,63.47
2023-02-11T17:20:20.637Z,63.03
2023-02-11T17:22:48.916Z,63.57
2023-02-11T17:25:18.167Z,61.95
2023-02-11T17:27:46.398Z,61.02
2023-02-11T17:30:15.185Z,62.83
2023-02-11T17:32:43.358Z,61.83
2023-02-11T17:35:11.738Z,60.33
2023-02-11T17:37:40.832Z,62.00
2023-02-11T17:40:09.803Z,64.61
2023-02-11T17:42:37.996Z,61.56
2023-02-11T17:45:06.999Z,63.19
2023-02-11T17:47:36.166Z,62.53
2023-02-11T17:50:05.186Z,63.74
2023-02-11T17:52:33.353Z,65.24
2023-02-11T17:55:01.532Z,65.32
2023-02-11T17:57:29.907Z,65.80
2023-02-11T17:59:58.289Z,63.93
2023-02-11T18:02:26.457Z,64.23
2023-02-11T18:04:57.799Z,65.24
2023-02-11T18:07:27.003Z,62.72
2023-02-11T18:09:55.179Z,62.58
2023-02-11T18:12:26.531Z,65.51
2023-02-11T18:14:57.879Z,69.32
2023-02-11T18:17:26.562Z,68.90
2023-02-11T18:19:58.323Z,67.70
2023-02-11T18:22:27.210Z,67.17
2023-02-11T18:24:55.504Z,66.31
2023-02-11T18:27:23.775Z,67.24
2023-02-11T18:29:52.139Z,67.92
2023-02-11T18:32:20.310Z,69.03
2023-02-11T18:34:48.493Z,70.86
2023-02-11T18:37:17.275Z,71.29
2023-02-11T18:39:45.456Z,71.35
2023-02-11T18:42:13.615Z,71.11
2023-02-11T18:44:41.707Z,70.48
2023-02-11T18:47:09.768Z,69.44
2023-02-11T18:49:37.983Z,67.01
2023-02-11T18:52:06.117Z,62.92
2023-02-11T18:54:34.388Z,62.90
2023-02-11T18:57:02.555Z,67.46
2023-02-11T18:59:30.744Z,66.80
2023-02-11T19:01:59.015Z,66.83
2023-02-11T19:04:27.340Z,67.75
2023-02-11T19:06:55.667Z,66.75
2023-02-11T19:09:24.057Z,68.26
2023-02-11T19:11:54.441Z,66.37
2023-02-11T19:14:25.442Z,61.43
2023-02-11T19:16:56.822Z,65.37
2023-02-11T19:19:28.408Z,67.65
2023-02-11T19:21:57.833Z,67.77
2023-02-11T19:24:27.495Z,66.63
2023-02-11T19:26:58.468Z,66.07
2023-02-11T19:29:27.155Z,64.22
2023-02-11T19:31:55.387Z,63.61
2023-02-11T19:34:24.126Z,64.71
2023-02-11T19:36:53.526Z,63.81
2023-02-11T19:39:24.146Z,62.67
2023-02-11T19:41:52.741Z,64.68
2023-02-11T19:44:21.006Z,64.46
2023-02-11T19:46:50.503Z,63.90
2023-02-11T19:49:23.523Z,62.60
2023-02-11T19:51:52.304Z,62.70
2023-02-11T19:54:21.374Z,62.65
2023-02-11T19:56:49.659Z,60.97
2023-02-11T19:59:17.938Z,61.28
2023-02-11T20:01:48.044Z,60.89
2023-02-11T20:04:17.345Z,59.89
2023-02-11T20:06:48.395Z,60.35
2023-02-11T20:09:16.872Z,60.01
2023-02-11T20:11:45.224Z,61.74
2023-02-11T20:14:15.311Z,61.25
2023-02-11T20:16:49.282Z,60.49
2023-02-11T20:19:21.670Z,60.73
2023-02-11T20:21:53.197Z,60.55
2023-02-11T20:24:22.761Z,60.43
2023-02-11T20:26:55.617Z,61.28
2023-02-11T20:29:24.675Z,61.28
2023-02-11T20:31:53.734Z,62.94
2023-02-11T20:34:22.482Z,61.71
2023-02-11T20:36:55.058Z,61.14
2023-02-11T20:39:25.099Z,61.95
2023-02-11T20:41:54.110Z,63.15
2023-02-11T20:44:23.252Z,62.43
2023-02-11T20:46:54.237Z,62.47
2023-02-11T20:49:25.173Z,62.35
2023-02-11T20:51:54.099Z,61.15
2023-02-11T20:54:24.333Z,60.53
2023-02-11T20:56:58.472Z,60.85
2023-02-11T20:59:27.132Z,60.94
2023-02-11T21:01:56.817Z,60.31
2023-02-11T21:04:27.790Z,59.87
2023-02-11T21:06:58.869Z,59.40
2023-02-11T21:09:30.459Z,59.07
2023-02-11T21:11:58.652Z,59.09
2023-02-11T21:14:28.451Z,60.44
2023-02-11T21:16:57.704Z,59.09
2023-02-11T21:19:26.361Z,58.51
2023-02-11T21:21:55.510Z,58.66
2023-02-11T21:24:24.078Z,60.05
2023-02-11T21:26:52.374Z,60.32
2023-02-11T21:29:20.512Z,60.55
2023-02-11T21:31:49.070Z,59.54
2023-02-11T21:34:17.332Z,59.50
2023-02-11T21:36:45.715Z,59.25
2023-02-11T21:39:14.091Z,60.60
2023-02-11T21:41:42.670Z,61.11
2023-02-11T21:44:11.071Z,61.46
2023-02-11T21:46:39.475Z,61.29
2023-02-11T21:49:07.813Z,60.32
2023-02-11T21:51:36.511Z,60.59
2023-02-11T21:54:05.083Z,60.63
2023-02-11T21:56:35.262Z,61.38
2023-02-11T21:59:03.788Z,61.01
2023-02-11T22:01:35.398Z,61.31
2023-02-11T22:04:04.155Z,60.45
2023-02-11T22:06:34.662Z,61.05
2023-02-11T22:09:06.724Z,59.84
2023-02-11T22:11:35.506Z,60.13
2023-02-11T22:14:04.361Z,62.27
2023-02-11T22:16:32.784Z,60.64
2023-02-11T22:19:02.656Z,60.93
2023-02-11T22:21:31.081Z,60.75
2023-02-11T22:23:59.355Z,61.37
2023-02-11T22:26:28.555Z,61.48
2023-02-11T22:28:57.131Z,61.30
2023-02-11T22:31:30.264Z,61.40
2023-02-11T22:33:58.799Z,61.21
2023-02-11T22:36:35.855Z,62.06
2023-02-11T22:39:07.392Z,61.97
2023-02-11T22:41:35.586Z,61.14
2023-02-11T22:44:04.555Z,61.64
2023-02-11T22:46:32.963Z,62.00
2023-02-11T22:49:01.135Z,61.77
2023-02-11T22:51:30.065Z,60.67
2023-02-11T22:54:00.899Z,60.65
2023-02-11T22:56:31.047Z,61.04
2023-02-11T22:59:01.716Z,60.90
2023-02-11T23:01:30.616Z,60.96
2023-02-11T23:04:04.127Z,60.52
2023-02-11T23:06:32.586Z,60.49
2023-02-11T23:09:00.963Z,60.04
2023-02-11T23:11:31.596Z,60.25
2023-02-11T23:14:01.928Z,60.47
2023-02-11T23:16:32.708Z,61.07
2023-02-11T23:19:08.100Z,60.03
2023-02-11T23:21:38.326Z,59.87
2023-02-11T23:24:12.945Z,62.19
2023-02-11T23:26:43.580Z,61.86
2023-02-11T23:29:12.464Z,62.38
2023-02-11T23:31:45.396Z,62.26
2023-02-11T23:34:20.439Z,62.32
2023-02-11T23:36:48.679Z,62.84
2023-02-11T23:39:17.348Z,64.41
2023-02-11T23:41:46.544Z,63.96
2023-02-11T23:44:14.935Z,63.50
2023-02-11T23:46:43.319Z,63.57
2023-02-11T23:49:11.789Z,62.92
2023-02-11T23:51:40.166Z,64.24
2023-02-11T23:54:12.393Z,63.58
2023-02-11T23:56:42.556Z,64.91
2023-02-11T23:59:11.851Z,64.75
